createdAt,value
2018-06-18T00:01:26.397Z,2.10
2018-06-18T00:03:56.222Z,2.07
2018-06-18T00:06:26.009Z,2.20
2018-06-18T00:08:55.751Z,2.57
2018-06-18T00:11:25.513Z,2.30
2018-06-18T00:13:55.263Z,1.90
2018-06-18T00:16:25.072Z,2.23
2018-06-18T00:18:55.267Z,2.40
2018-06-18T00:21:25.058Z,2.30
2018-06-18T00:23:54.817Z,2.23
2018-06-18T00:26:24.633Z,2.63
2018-06-18T00:28:54.373Z,2.10
2018-06-18T00:31:24.094Z,2.40
2018-06-18T00:33:54.117Z,2.50
2018-06-18T00:36:23.934Z,2.10
2018-06-18T00:38:53.728Z,2.20
2018-06-18T00:41:23.454Z,2.40
2018-06-18T00:43:53.221Z,2.43
2018-06-18T00:46:23.350Z,2.60
2018-06-18T00:48:53.128Z,2.30
2018-06-18T00:51:22.906Z,2.53
2018-06-18T00:53:52.689Z,2.40
2018-06-18T00:56:22.425Z,2.50
2018-06-18T00:58:52.194Z,2.80
2018-06-18T01:01:21.967Z,2.73
2018-06-18T01:03:51.778Z,2.57
2018-06-18T01:06:21.568Z,2.73
2018-06-18T01:08:51.334Z,2.90
2018-06-18T01:11:21.115Z,3.33
2018-06-18T01:13:50.899Z,3.10
2018-06-18T01:16:20.630Z,2.60
2018-06-18T01:18:50.728Z,2.90
2018-06-18T01:21:20.707Z,2.90
2018-06-18T01:23:53.769Z,3.00
2018-06-18T01:26:23.516Z,3.30
2018-06-18T01:28:53.278Z,3.00
2018-06-18T01:31:23.009Z,3.47
2018-06-18T01:33:54.661Z,3.50
2018-06-18T01:36:24.462Z,3.40
2018-06-18T01:38:54.506Z,3.40
2018-06-18T01:41:24.236Z,3.73
2018-06-18T01:43:54.022Z,3.90
2018-06-18T01:46:23.766Z,3.70
2018-06-18T01:48:53.556Z,3.93
2018-06-18T01:51:23.317Z,4.00
2018-06-18T01:53:53.047Z,4.17
2018-06-18T01:56:22.828Z,3.80
2018-06-18T01:58:52.933Z,3.90
2018-06-18T02:01:22.757Z,4.20
2018-06-18T02:03:52.493Z,4.10
2018-06-18T02:06:22.453Z,4.73
2018-06-18T02:08:52.195Z,4.43
2018-06-18T02:11:21.917Z,4.90
2018-06-18T02:13:51.717Z,4.57
2018-06-18T02:16:21.479Z,4.97
2018-06-18T02:18:51.272Z,5.27
2018-06-18T02:21:21.014Z,5.73
2018-06-18T02:23:50.743Z,5.47
2018-06-18T02:26:20.535Z,5.53
2018-06-18T02:28:55.181Z,6.20
2018-06-18T02:32:30.736Z,6.50
2018-06-18T02:35:05.449Z,6.80
2018-06-18T02:37:40.111Z,5.90
2018-06-18T02:40:15.070Z,5.90
2018-06-18T02:42:44.943Z,6.20
2018-06-18T02:45:14.676Z,6.17
2018-06-18T02:47:44.461Z,5.90
2018-06-18T02:50:14.194Z,5.90
2018-06-18T02:52:44.010Z,6.30
2018-06-18T02:55:14.113Z,5.83
2018-06-18T02:57:43.861Z,6.40
2018-06-18T03:00:13.691Z,6.03
2018-06-18T03:02:43.465Z,6.00
2018-06-18T03:05:13.325Z,6.27
2018-06-18T03:07:43.046Z,6.50
2018-06-18T03:10:12.770Z,6.83
2018-06-18T03:12:42.634Z,7.70
2018-06-18T03:15:12.380Z,6.73
2018-06-18T03:17:42.132Z,7.20
2018-06-18T03:21:18.863Z,7.40
2018-06-18T03:23:53.554Z,7.17
2018-06-18T03:26:28.229Z,8.47
2018-06-18T03:29:02.806Z,7.50
2018-06-18T03:31:32.528Z,7.73
2018-06-18T03:34:02.297Z,7.80
2018-06-18T03:36:32.061Z,7.30
2018-06-18T03:39:01.886Z,8.47
2018-06-18T03:41:31.617Z,9.03
2018-06-18T03:44:08.430Z,8.20
2018-06-18T03:46:38.259Z,7.90
2018-06-18T03:49:08.002Z,8.43
2018-06-18T03:51:37.766Z,8.10
2018-06-18T03:54:07.756Z,8.43
2018-06-18T03:56:37.546Z,8.57
2018-06-18T03:59:07.434Z,8.20
2018-06-18T04:01:53.450Z,8.97
2018-06-18T04:04:28.051Z,8.03
2018-06-18T04:07:02.805Z,7.93
2018-06-18T04:09:37.539Z,8.13
2018-06-18T04:12:09.881Z,8.67
2018-06-18T04:14:39.641Z,8.00
2018-06-18T04:17:09.437Z,7.97
2018-06-18T04:19:39.178Z,8.50
2018-06-18T04:22:08.949Z,8.13
2018-06-18T04:24:38.773Z,8.70
2018-06-18T04:27:08.521Z,8.67
2018-06-18T04:29:38.302Z,8.27
2018-06-18T04:32:08.055Z,7.90
2018-06-18T04:34:54.828Z,8.77
2018-06-18T04:37:24.577Z,8.70
2018-06-18T04:39:54.373Z,9.20
2018-06-18T04:42:28.942Z,9.70
2018-06-18T04:45:03.602Z,9.57
2018-06-18T04:47:38.326Z,9.20
2018-06-18T04:50:12.966Z,8.63
2018-06-18T04:52:42.792Z,9.07
2018-06-18T04:55:12.603Z,9.17
2018-06-18T04:57:42.349Z,9.67
2018-06-18T05:00:22.252Z,9.60
2018-06-18T05:02:51.983Z,8.97
2018-06-18T05:05:21.733Z,8.90
2018-06-18T05:07:57.411Z,8.87
2018-06-18T05:10:28.725Z,9.27
2018-06-18T05:12:58.586Z,8.73
2018-06-18T05:15:32.114Z,8.97
2018-06-18T05:18:01.896Z,9.30
2018-06-18T05:20:32.255Z,8.77
2018-06-18T05:23:02.059Z,8.33
2018-06-18T05:25:32.605Z,8.83
2018-06-18T05:28:02.466Z,8.73
2018-06-18T05:30:32.530Z,8.70
2018-06-18T05:33:02.295Z,8.53
2018-06-18T05:35:32.086Z,7.97
2018-06-18T05:38:05.606Z,8.23
2018-06-18T05:40:35.351Z,8.43
2018-06-18T05:43:05.140Z,8.37
2018-06-18T05:45:34.935Z,8.50
2018-06-18T05:48:04.696Z,8.77
2018-06-18T05:50:34.545Z,8.57
2018-06-18T05:53:04.497Z,8.87
2018-06-18T05:55:34.326Z,9.00
2018-06-18T05:58:04.220Z,8.80
2018-06-18T06:00:33.987Z,8.27
2018-06-18T06:03:03.802Z,8.17
2018-06-18T06:05:33.558Z,7.93
2018-06-18T06:08:03.334Z,7.93
2018-06-18T06:10:33.129Z,8.20
2018-06-18T06:13:02.945Z,7.73
2018-06-18T06:15:32.799Z,7.60
2018-06-18T06:18:02.561Z,7.67
2018-06-18T06:20:32.385Z,7.47
2018-06-18T06:23:02.151Z,7.47
2018-06-18T06:25:32.002Z,7.83
2018-06-18T06:28:01.833Z,7.30
2018-06-18T06:30:31.634Z,6.37
2018-06-18T06:33:01.474Z,7.03
2018-06-18T06:35:34.755Z,6.50
2018-06-18T06:38:04.601Z,6.80
2018-06-18T06:40:34.373Z,7.10
2018-06-18T06:43:04.282Z,5.90
2018-06-18T06:45:34.238Z,5.63
2018-06-18T06:48:04.121Z,6.23
2018-06-18T06:50:33.990Z,5.73
2018-06-18T06:53:03.741Z,5.83
2018-06-18T06:55:33.528Z,5.50
2018-06-18T06:58:03.405Z,6.40
2018-06-18T07:00:33.172Z,5.83
2018-06-18T07:03:03.057Z,6.07
2018-06-18T07:05:32.841Z,5.80
2018-06-18T07:08:02.678Z,6.20
2018-06-18T07:10:32.485Z,5.97
2018-06-18T07:13:02.317Z,6.83
2018-06-18T07:15:32.070Z,6.60
2018-06-18T07:18:01.825Z,6.37
2018-06-18T07:20:32.002Z,7.03
2018-06-18T07:23:01.749Z,6.77
2018-06-18T07:25:31.554Z,7.00
2018-06-18T07:28:01.318Z,7.23
2018-06-18T07:30:31.191Z,7.43
2018-06-18T07:33:01.088Z,7.87
2018-06-18T07:35:30.833Z,7.13
2018-06-18T07:38:00.666Z,8.30
2018-06-18T07:40:30.426Z,7.60
2018-06-18T07:43:00.289Z,7.70
2018-06-18T07:45:30.062Z,8.30
2018-06-18T07:47:59.826Z,7.70
2018-06-18T07:50:29.682Z,7.37
2018-06-18T07:52:59.475Z,7.87
2018-06-18T07:55:29.327Z,7.53
2018-06-18T07:57:59.086Z,7.80
2018-06-18T08:00:29.281Z,7.03
2018-06-18T08:02:59.062Z,7.17
2018-06-18T08:05:28.826Z,7.37
2018-06-18T08:07:58.643Z,7.30
2018-06-18T08:10:28.403Z,7.13
2018-06-18T08:12:59.023Z,7.17
2018-06-18T08:15:28.934Z,7.23
2018-06-18T08:17:58.757Z,6.83
2018-06-18T08:20:28.513Z,6.73
2018-06-18T08:22:58.305Z,6.67
2018-06-18T08:25:28.085Z,6.97
2018-06-18T08:27:57.825Z,6.70
2018-06-18T08:30:28.027Z,6.50
2018-06-18T08:32:57.780Z,6.77
2018-06-18T08:35:27.574Z,6.20
2018-06-18T08:37:57.335Z,6.00
2018-06-18T08:40:27.097Z,5.90
2018-06-18T08:42:56.893Z,5.27
2018-06-18T08:45:26.645Z,5.27
2018-06-18T08:47:56.517Z,5.90
2018-06-18T08:51:35.018Z,5.40
2018-06-18T08:54:09.777Z,4.30
2018-06-18T08:56:44.322Z,4.40
2018-06-18T08:59:19.168Z,5.10
2018-06-18T09:01:49.130Z,4.77
2018-06-18T09:05:21.840Z,4.70
2018-06-18T09:07:54.613Z,4.57
2018-06-18T09:10:24.475Z,4.33
2018-06-18T09:12:54.387Z,4.00
2018-06-18T09:15:24.261Z,4.27
2018-06-18T09:17:54.037Z,3.77
2018-06-18T09:20:23.791Z,3.80
2018-06-18T09:22:53.657Z,3.83
2018-06-18T09:25:23.597Z,3.70
2018-06-18T09:27:53.405Z,3.43
2018-06-18T09:30:23.222Z,3.23
2018-06-18T09:32:52.984Z,3.97
2018-06-18T09:35:22.773Z,3.40
2018-06-18T09:37:52.521Z,3.67
2018-06-18T09:40:22.341Z,4.27
2018-06-18T09:42:52.110Z,3.93
2018-06-18T09:45:21.872Z,3.90
2018-06-18T09:47:51.683Z,3.90
2018-06-18T09:50:26.258Z,4.27
2018-06-18T09:53:00.985Z,3.97
2018-06-18T09:55:35.463Z,4.30
2018-06-18T09:58:10.281Z,4.40
2018-06-18T10:00:54.059Z,4.50
2018-06-18T10:03:24.338Z,4.53
2018-06-18T10:05:54.434Z,5.10
2018-06-18T10:08:24.368Z,5.50
2018-06-18T10:10:54.338Z,4.17
2018-06-18T10:13:24.077Z,3.80
2018-06-18T10:15:53.923Z,3.93
2018-06-18T10:18:23.653Z,4.20
2018-06-18T10:20:53.711Z,4.07
2018-06-18T10:23:23.475Z,4.07
2018-06-18T10:25:53.265Z,4.10
2018-06-18T10:28:23.043Z,4.40
2018-06-18T10:30:52.901Z,5.00
2018-06-18T10:33:27.581Z,4.53
2018-06-18T10:36:02.398Z,4.33
2018-06-18T10:39:34.897Z,4.90
2018-06-18T10:42:09.633Z,4.60
2018-06-18T10:44:39.361Z,4.73
2018-06-18T10:47:09.102Z,5.53
2018-06-18T10:49:38.913Z,6.03
2018-06-18T10:52:08.682Z,5.30
2018-06-18T10:54:38.486Z,4.30
2018-06-18T10:57:08.265Z,5.10
2018-06-18T10:59:38.001Z,5.40
2018-06-18T11:02:07.835Z,5.30
2018-06-18T11:04:37.723Z,5.70
2018-06-18T11:07:07.514Z,5.33
2018-06-18T11:09:37.263Z,4.67
2018-06-18T11:12:07.009Z,4.50
2018-06-18T11:14:36.817Z,5.10
2018-06-18T11:17:11.712Z,4.70
2018-06-18T11:19:46.556Z,4.50
2018-06-18T11:22:16.391Z,3.63
2018-06-18T11:24:51.152Z,3.67
2018-06-18T11:27:20.986Z,2.83
2018-06-18T11:29:51.038Z,3.00
2018-06-18T11:32:21.035Z,2.50
2018-06-18T11:34:51.045Z,2.80
2018-06-18T11:37:21.178Z,2.57
2018-06-18T11:39:50.994Z,2.50
2018-06-18T11:42:21.220Z,2.60
2018-06-18T11:44:51.035Z,2.77
2018-06-18T11:47:20.878Z,2.13
2018-06-18T11:49:50.884Z,2.70
2018-06-18T11:52:20.739Z,2.20
2018-06-18T11:54:51.062Z,2.23
2018-06-18T11:57:21.204Z,2.33
2018-06-18T11:59:56.013Z,2.00
2018-06-18T12:02:30.659Z,2.30
2018-06-18T12:05:05.615Z,2.27
2018-06-18T12:07:40.294Z,2.47
2018-06-18T12:10:10.290Z,2.30
2018-06-18T12:12:40.183Z,2.13
2018-06-18T12:15:10.145Z,1.90
2018-06-18T12:17:39.930Z,2.20
2018-06-18T12:20:09.777Z,2.40
2018-06-18T12:22:39.565Z,1.60
2018-06-18T12:25:09.357Z,1.27
2018-06-18T12:27:39.221Z,1.33
2018-06-18T12:30:09.034Z,1.50
2018-06-18T12:32:38.895Z,1.43
2018-06-18T12:35:08.742Z,1.67
2018-06-18T12:37:38.534Z,1.60
2018-06-18T12:40:08.393Z,1.47
2018-06-18T12:42:38.186Z,1.47
2018-06-18T12:45:13.522Z,1.57
2018-06-18T12:47:48.213Z,2.00
2018-06-18T12:50:23.109Z,1.60
2018-06-18T12:52:57.706Z,1.40
2018-06-18T12:55:32.594Z,1.40
2018-06-18T12:58:02.380Z,1.20
2018-06-18T13:00:32.274Z,1.30
2018-06-18T13:03:10.307Z,1.40
2018-06-18T13:05:40.574Z,1.33
2018-06-18T13:08:10.374Z,1.17
2018-06-18T13:10:40.144Z,1.50
2018-06-18T13:13:09.982Z,1.60
2018-06-18T13:15:39.766Z,1.30
2018-06-18T13:18:09.658Z,1.43
2018-06-18T13:20:39.484Z,1.43
2018-06-18T13:23:09.362Z,1.30
2018-06-18T13:25:39.185Z,1.40
2018-06-18T13:28:20.550Z,1.60
2018-06-18T13:30:50.454Z,1.60
2018-06-18T13:33:20.380Z,1.40
2018-06-18T13:35:50.224Z,1.70
2018-06-18T13:38:25.025Z,1.30
2018-06-18T13:40:59.807Z,1.60
2018-06-18T13:43:34.722Z,1.30
2018-06-18T13:46:09.336Z,1.40
2018-06-18T13:48:44.271Z,1.00
2018-06-18T13:51:14.224Z,1.50
2018-06-18T13:53:44.073Z,1.63
2018-06-18T13:56:13.967Z,1.70
2018-06-18T13:58:43.794Z,1.73
2018-06-18T14:01:14.321Z,1.60
2018-06-18T14:03:44.597Z,2.07
2018-06-18T14:06:16.141Z,1.70
2018-06-18T14:08:45.967Z,2.00
2018-06-18T14:11:15.774Z,1.73
2018-06-18T14:13:45.682Z,1.63
2018-06-18T14:16:15.649Z,1.90
2018-06-18T14:18:45.522Z,1.50
2018-06-18T14:21:15.377Z,1.70
2018-06-18T14:23:45.231Z,2.00
2018-06-18T14:26:15.052Z,1.90
2018-06-18T14:28:44.874Z,1.60
2018-06-18T14:31:19.725Z,2.17
2018-06-18T14:33:54.389Z,1.77
2018-06-18T14:36:29.248Z,2.00
2018-06-18T14:39:04.143Z,1.80
2018-06-18T14:41:34.017Z,1.93
2018-06-18T14:44:03.791Z,1.70
2018-06-18T14:46:33.663Z,2.13
2018-06-18T14:49:03.506Z,2.03
2018-06-18T14:51:33.410Z,1.90
2018-06-18T14:54:03.303Z,2.10
2018-06-18T14:56:36.004Z,2.10
2018-06-18T14:59:13.069Z,1.87
2018-06-18T15:01:42.965Z,1.70
2018-06-18T15:04:12.777Z,1.80
2018-06-18T15:06:42.744Z,1.50
2018-06-18T15:09:13.628Z,2.00
2018-06-18T15:11:44.505Z,1.87
2018-06-18T15:14:14.569Z,1.80
2018-06-18T15:16:44.419Z,1.90
2018-06-18T15:19:14.258Z,1.93
2018-06-18T15:21:48.395Z,1.83
2018-06-18T15:24:26.687Z,1.50
2018-06-18T15:26:56.709Z,2.00
2018-06-18T15:29:26.655Z,1.97
2018-06-18T15:31:56.688Z,2.30
2018-06-18T15:34:27.042Z,2.17
2018-06-18T15:36:56.904Z,2.23
2018-06-18T15:39:27.160Z,1.97
2018-06-18T15:41:57.021Z,1.77
2018-06-18T15:44:27.200Z,2.10
2018-06-18T15:46:57.380Z,1.80
2018-06-18T15:49:30.269Z,2.13
2018-06-18T15:52:04.050Z,2.60
2018-06-18T15:54:36.306Z,1.97
2018-06-18T15:57:06.377Z,4.93
2018-06-18T15:59:36.336Z,6.20
2018-06-18T16:02:06.251Z,3.30
2018-06-18T16:04:36.498Z,2.70
2018-06-18T16:07:06.491Z,2.20
2018-06-18T16:09:36.340Z,1.97
2018-06-18T16:12:06.298Z,1.90
2018-06-18T16:14:36.153Z,2.00
2018-06-18T16:17:06.840Z,2.03
2018-06-18T16:19:36.694Z,1.90
2018-06-18T16:22:06.625Z,2.30
2018-06-18T16:24:36.430Z,2.40
2018-06-18T16:27:06.468Z,1.80
2018-06-18T16:29:36.374Z,2.00
2018-06-18T16:32:06.370Z,2.30
2018-06-18T16:34:36.185Z,2.37
2018-06-18T16:37:06.032Z,2.10
2018-06-18T16:39:35.941Z,2.17
2018-06-18T16:42:05.825Z,2.10
2018-06-18T16:44:37.476Z,1.90
2018-06-18T16:47:07.298Z,2.07
2018-06-18T16:49:37.234Z,2.10
2018-06-18T16:52:07.573Z,2.30
2018-06-18T16:54:37.468Z,1.83
2018-06-18T16:57:07.338Z,2.07
2018-06-18T16:59:37.217Z,1.90
2018-06-18T17:02:07.173Z,1.97
2018-06-18T17:04:37.949Z,2.30
2018-06-18T17:07:07.878Z,2.40
2018-06-18T17:09:37.797Z,2.27
2018-06-18T17:12:07.669Z,2.60
2018-06-18T17:14:37.525Z,2.53
2018-06-18T17:17:07.658Z,2.07
2018-06-18T17:19:37.496Z,2.33
2018-06-18T17:22:07.263Z,2.20
2018-06-18T17:24:37.118Z,2.37
2018-06-18T17:27:06.919Z,2.30
2018-06-18T17:29:36.695Z,2.47
2018-06-18T17:32:06.524Z,2.40
2018-06-18T17:34:36.269Z,2.27
2018-06-18T17:37:06.108Z,1.90
2018-06-18T17:39:35.877Z,2.23
2018-06-18T17:42:05.737Z,2.20
2018-06-18T17:44:35.509Z,4.80
2018-06-18T17:47:05.632Z,2.80
2018-06-18T17:49:35.384Z,2.67
2018-06-18T17:52:05.140Z,2.00
2018-06-18T17:54:34.922Z,2.40
2018-06-18T17:57:04.713Z,3.57
2018-06-18T17:59:34.500Z,3.10
2018-06-18T18:02:04.381Z,2.10
2018-06-18T18:04:34.138Z,2.10
2018-06-18T18:07:03.977Z,1.93
2018-06-18T18:09:33.726Z,1.80
2018-06-18T18:12:03.594Z,2.20
2018-06-18T18:14:33.474Z,2.10
2018-06-18T18:17:03.430Z,2.47
2018-06-18T18:19:33.231Z,2.00
2018-06-18T18:22:03.007Z,2.10
2018-06-18T18:24:32.888Z,1.90
2018-06-18T18:27:02.654Z,2.13
2018-06-18T18:29:32.449Z,2.13
2018-06-18T18:32:02.253Z,1.90
2018-06-18T18:34:32.033Z,2.23
2018-06-18T18:37:01.840Z,2.10
2018-06-18T18:39:31.603Z,2.27
2018-06-18T18:42:01.514Z,2.27
2018-06-18T18:44:31.309Z,2.40
2018-06-18T18:47:01.088Z,2.60
2018-06-18T18:49:30.995Z,3.20
2018-06-18T18:52:00.786Z,2.50
2018-06-18T18:55:52.239Z,2.90
2018-06-18T18:58:34.463Z,2.60
2018-06-18T19:01:04.295Z,3.77
2018-06-18T19:03:34.386Z,3.37
2018-06-18T19:06:04.146Z,2.97
2018-06-18T19:08:34.159Z,2.70
2018-06-18T19:11:05.297Z,4.13
2018-06-18T19:13:37.844Z,4.60
2018-06-18T19:16:08.237Z,7.10
2018-06-18T19:18:39.027Z,6.10
2018-06-18T19:21:10.746Z,4.17
2018-06-18T19:23:40.875Z,3.53
2018-06-18T19:26:10.906Z,2.80
2018-06-18T19:28:40.933Z,3.10
2018-06-18T19:31:14.976Z,2.80
2018-06-18T19:34:01.204Z,2.80
2018-06-18T19:36:31.009Z,3.10
2018-06-18T19:39:00.768Z,3.00
2018-06-18T19:41:30.606Z,3.60
2018-06-18T19:44:00.394Z,3.50
2018-06-18T19:46:35.149Z,3.20
2018-06-18T19:49:14.988Z,3.30
2018-06-18T19:51:44.798Z,2.93
2018-06-18T19:54:18.952Z,3.03
2018-06-18T19:56:48.805Z,3.47
2018-06-18T19:59:18.582Z,3.40
2018-06-18T20:01:48.396Z,3.13
2018-06-18T20:04:18.161Z,3.63
2018-06-18T20:06:47.922Z,3.67
2018-06-18T20:09:18.069Z,4.30
2018-06-18T20:11:48.197Z,4.43
2018-06-18T20:14:18.018Z,4.40
2018-06-18T20:16:47.799Z,3.57
2018-06-18T20:19:17.623Z,3.70
2018-06-18T20:21:47.962Z,3.77
2018-06-18T20:24:17.782Z,3.83
2018-06-18T20:26:47.547Z,4.43
2018-06-18T20:29:17.410Z,3.80
2018-06-18T20:31:47.478Z,3.97
2018-06-18T20:34:17.446Z,3.67
2018-06-18T20:36:47.191Z,3.90
2018-06-18T20:39:17.013Z,4.30
2018-06-18T20:41:46.833Z,4.30
2018-06-18T20:44:18.802Z,4.50
2018-06-18T20:46:48.733Z,6.47
2018-06-18T20:49:18.578Z,10.30
2018-06-18T20:51:48.682Z,11.53
2018-06-18T20:54:18.466Z,10.90
2018-06-18T20:56:48.285Z,11.77
2018-06-18T20:59:18.038Z,10.67
2018-06-18T21:01:47.836Z,13.20
2018-06-18T21:04:17.713Z,14.47
2018-06-18T21:06:47.469Z,14.50
2018-06-18T21:09:17.273Z,14.57
2018-06-18T21:11:47.029Z,12.87
2018-06-18T21:14:16.820Z,12.00
2018-06-18T21:16:48.538Z,7.27
2018-06-18T21:19:18.399Z,6.83
2018-06-18T21:21:48.187Z,4.70
2018-06-18T21:24:18.058Z,4.50
2018-06-18T21:26:47.846Z,4.33
2018-06-18T21:29:17.613Z,4.17
2018-06-18T21:31:47.425Z,4.40
2018-06-18T21:34:17.196Z,4.07
2018-06-18T21:36:46.939Z,4.80
2018-06-18T21:39:16.724Z,4.53
2018-06-18T21:41:46.545Z,4.90
2018-06-18T21:44:19.941Z,4.07
2018-06-18T21:46:50.033Z,4.60
2018-06-18T21:49:19.827Z,4.03
2018-06-18T21:51:49.573Z,3.63
2018-06-18T21:54:19.353Z,4.83
2018-06-18T21:56:49.130Z,4.30
2018-06-18T21:59:18.902Z,4.20
2018-06-18T22:01:48.714Z,4.53
2018-06-18T22:04:18.461Z,4.47
2018-06-18T22:06:48.644Z,4.63
2018-06-18T22:09:21.149Z,4.47
2018-06-18T22:11:54.050Z,4.20
2018-06-18T22:14:24.841Z,4.07
2018-06-18T22:16:54.733Z,4.20
2018-06-18T22:19:24.482Z,4.87
2018-06-18T22:21:54.281Z,5.20
2018-06-18T22:24:24.142Z,5.03
2018-06-18T22:26:54.070Z,3.93
2018-06-18T22:29:23.909Z,4.37
2018-06-18T22:31:53.668Z,4.33
2018-06-18T22:34:23.485Z,4.60
2018-06-18T22:36:53.481Z,4.60
2018-06-18T22:39:23.297Z,4.53
2018-06-18T22:41:53.167Z,4.53
2018-06-18T22:44:23.046Z,4.23
2018-06-18T22:46:52.867Z,4.73
2018-06-18T22:49:23.093Z,4.10
2018-06-18T22:51:52.859Z,4.30
2018-06-18T22:54:22.702Z,4.73
2018-06-18T22:56:52.497Z,4.40
2018-06-18T22:59:22.642Z,4.83
2018-06-18T23:01:52.774Z,5.10
2018-06-18T23:04:22.574Z,4.80
2018-06-18T23:06:52.566Z,5.13
2018-06-18T23:09:22.474Z,5.23
2018-06-18T23:11:52.221Z,5.27
2018-06-18T23:14:24.489Z,5.07
2018-06-18T23:16:54.389Z,5.03
2018-06-18T23:19:24.174Z,5.03
2018-06-18T23:21:53.937Z,5.37
2018-06-18T23:24:23.742Z,5.10
2018-06-18T23:26:53.893Z,5.37
2018-06-18T23:29:24.086Z,4.87
2018-06-18T23:31:53.836Z,5.03
2018-06-18T23:34:23.815Z,5.63
2018-06-18T23:36:53.666Z,5.37
2018-06-18T23:39:23.474Z,5.27
2018-06-18T23:41:56.226Z,6.03
2018-06-18T23:44:26.257Z,5.47
2018-06-18T23:46:56.006Z,4.83
2018-06-18T23:49:25.745Z,5.40
2018-06-18T23:51:55.572Z,5.60
2018-06-18T23:54:25.333Z,5.80
2018-06-18T23:56:55.080Z,4.97
2018-06-18T23:59:24.880Z,5.17
